createdAt,value
2023-02-18T00:00:58.599Z,23.40
2023-02-18T00:01:58.744Z,30.60
2023-02-18T00:02:58.900Z,23.50
2023-02-18T00:03:59.035Z,22.10
2023-02-18T00:04:59.194Z,28.10
2023-02-18T00:05:59.363Z,27.50
2023-02-18T00:06:59.534Z,32.60
2023-02-18T00:07:59.705Z,28.00
2023-02-18T00:08:59.880Z,22.70
2023-02-18T00:10:00.082Z,28.70
2023-02-18T00:11:00.255Z,26.30
2023-02-18T00:12:00.437Z,24.20
2023-02-18T00:13:00.613Z,24.00
2023-02-18T00:14:00.686Z,24.40
2023-02-18T00:15:00.828Z,25.50
2023-02-18T00:16:01.040Z,28.90
2023-02-18T00:17:01.104Z,25.30
2023-02-18T00:18:01.244Z,26.90
2023-02-18T00:19:01.420Z,28.20
2023-02-18T00:20:01.537Z,24.70
2023-02-18T00:21:01.687Z,26.50
2023-02-18T00:22:01.820Z,25.10
2023-02-18T00:23:01.989Z,25.50
2023-02-18T00:24:02.144Z,27.70
2023-02-18T00:25:02.288Z,27.50
2023-02-18T00:26:02.417Z,27.00
2023-02-18T00:27:02.575Z,31.30
2023-02-18T00:28:02.735Z,26.80
2023-02-18T00:29:02.863Z,28.00
2023-02-18T00:30:03.071Z,29.50
2023-02-18T00:31:03.181Z,29.90
2023-02-18T00:32:03.417Z,25.50
2023-02-18T00:33:03.377Z,27.30
2023-02-18T00:34:03.530Z,27.50
2023-02-18T00:35:03.671Z,25.50
2023-02-18T00:36:03.810Z,28.70
2023-02-18T00:37:03.991Z,25.80
2023-02-18T00:38:04.155Z,22.80
2023-02-18T00:39:04.299Z,29.60
2023-02-18T00:40:04.477Z,27.80
2023-02-18T00:41:04.643Z,30.30
2023-02-18T00:42:04.773Z,33.20
2023-02-18T00:43:04.961Z,27.30
2023-02-18T00:44:05.101Z,26.50
2023-02-18T00:45:05.265Z,31.10
2023-02-18T00:46:05.734Z,30.30
2023-02-18T00:47:05.530Z,24.40
2023-02-18T00:48:05.684Z,34.30
2023-02-18T00:49:05.835Z,31.30
2023-02-18T00:50:05.999Z,29.70
2023-02-18T00:51:06.162Z,26.30
2023-02-18T00:52:06.312Z,27.70
2023-02-18T00:53:06.489Z,28.10
2023-02-18T00:54:06.636Z,31.50
2023-02-18T00:55:06.817Z,24.70
2023-02-18T00:56:07.367Z,28.40
2023-02-18T00:57:07.158Z,25.30
2023-02-18T00:58:07.330Z,26.00
2023-02-18T00:59:07.499Z,25.00
2023-02-18T01:00:07.659Z,26.80
2023-02-18T01:01:07.893Z,26.60
2023-02-18T01:02:07.930Z,25.00
2023-02-18T01:03:08.103Z,28.00
2023-02-18T01:04:08.249Z,29.50
2023-02-18T01:05:08.422Z,28.40
2023-02-18T01:06:08.881Z,29.10
2023-02-18T01:07:08.731Z,26.80
2023-02-18T01:08:08.898Z,24.10
2023-02-18T01:09:09.049Z,33.00
2023-02-18T01:10:09.199Z,25.10
2023-02-18T01:11:09.374Z,27.30
2023-02-18T01:12:09.538Z,26.00
2023-02-18T01:13:09.734Z,28.20
2023-02-18T01:14:09.900Z,26.40
2023-02-18T01:15:10.056Z,24.50
2023-02-18T01:16:10.630Z,25.30
2023-02-18T01:17:10.346Z,21.60
2023-02-18T01:18:10.535Z,27.10
2023-02-18T01:19:10.802Z,28.00
2023-02-18T01:20:10.848Z,28.30
2023-02-18T01:21:11.024Z,25.50
2023-02-18T01:22:11.157Z,21.30
2023-02-18T01:23:11.303Z,22.90
2023-02-18T01:24:11.449Z,25.50
2023-02-18T01:25:11.612Z,24.90
2023-02-18T01:26:11.838Z,28.60
2023-02-18T01:27:11.955Z,23.60
2023-02-18T01:28:12.133Z,28.70
2023-02-18T01:29:12.281Z,27.10
2023-02-18T01:30:12.476Z,24.50
2023-02-18T01:31:12.710Z,25.10
2023-02-18T01:32:12.877Z,24.70
2023-02-18T01:33:12.849Z,27.50
2023-02-18T01:34:12.988Z,24.70
2023-02-18T01:35:13.146Z,21.20
2023-02-18T01:36:13.385Z,20.70
2023-02-18T01:37:13.434Z,23.70
2023-02-18T01:38:13.589Z,28.00
2023-02-18T01:39:13.754Z,22.00
2023-02-18T01:40:13.907Z,28.90
2023-02-18T01:41:14.064Z,25.90
2023-02-18T01:42:14.218Z,26.80
2023-02-18T01:43:14.392Z,25.00
2023-02-18T01:44:14.549Z,23.90
2023-02-18T01:45:14.736Z,24.90
2023-02-18T01:46:14.965Z,27.40
2023-02-18T01:47:15.116Z,20.70
2023-02-18T01:48:15.303Z,21.80
2023-02-18T01:49:15.449Z,20.50
2023-02-18T01:50:15.594Z,22.10
2023-02-18T01:51:15.757Z,22.30
2023-02-18T01:52:15.930Z,23.50
2023-02-18T01:53:16.092Z,22.80
2023-02-18T01:54:16.240Z,24.60
2023-02-18T01:55:16.400Z,28.20
2023-02-18T01:56:16.545Z,23.40
2023-02-18T01:57:16.704Z,19.90
2023-02-18T01:58:16.873Z,28.30
2023-02-18T01:59:17.027Z,21.30
2023-02-18T02:00:17.179Z,24.80
2023-02-18T02:01:17.323Z,25.60
2023-02-18T02:02:17.466Z,23.40
2023-02-18T02:03:17.632Z,27.00
2023-02-18T02:04:17.772Z,24.90
2023-02-18T02:05:17.928Z,25.60
2023-02-18T02:06:18.080Z,25.50
2023-02-18T02:07:18.290Z,26.00
2023-02-18T02:08:18.427Z,27.30
2023-02-18T02:09:18.578Z,27.80
2023-02-18T02:10:18.720Z,23.00
2023-02-18T02:11:18.877Z,28.00
2023-02-18T02:12:19.018Z,26.10
2023-02-18T02:13:19.211Z,28.50
2023-02-18T02:14:19.362Z,25.20
2023-02-18T02:15:19.526Z,26.90
2023-02-18T02:16:19.704Z,25.50
2023-02-18T02:17:19.857Z,22.40
2023-02-18T02:18:20.027Z,25.80
2023-02-18T02:19:20.183Z,21.90
2023-02-18T02:20:20.370Z,22.20
2023-02-18T02:21:20.511Z,21.40
2023-02-18T02:22:20.664Z,25.10
2023-02-18T02:23:20.838Z,24.50
2023-02-18T02:24:20.994Z,22.40
2023-02-18T02:25:21.152Z,25.50
2023-02-18T02:26:21.305Z,25.20
2023-02-18T02:27:21.483Z,28.30
2023-02-18T02:28:21.631Z,24.00
2023-02-18T02:29:21.791Z,22.20
2023-02-18T02:30:21.984Z,24.90
2023-02-18T02:31:22.167Z,22.80
2023-02-18T02:32:22.328Z,22.30
2023-02-18T02:33:22.502Z,24.40
2023-02-18T02:34:22.655Z,21.50
2023-02-18T02:35:22.822Z,23.70
2023-02-18T02:36:22.970Z,24.70
2023-02-18T02:37:23.128Z,23.20
2023-02-18T02:38:23.296Z,19.90
2023-02-18T02:39:23.464Z,20.90
2023-02-18T02:40:23.705Z,24.00
2023-02-18T02:41:23.814Z,24.30
2023-02-18T02:42:23.949Z,24.60
2023-02-18T02:43:24.127Z,22.60
2023-02-18T02:44:24.288Z,23.70
2023-02-18T02:45:24.489Z,23.90
2023-02-18T02:46:24.651Z,24.20
2023-02-18T02:47:24.803Z,26.40
2023-02-18T02:48:24.977Z,23.60
2023-02-18T02:49:25.132Z,26.20
2023-02-18T02:50:25.290Z,26.30
2023-02-18T02:51:25.450Z,21.40
2023-02-18T02:52:33.634Z,22.30
2023-02-18T02:53:25.762Z,26.00
2023-02-18T02:54:25.949Z,24.20
2023-02-18T02:55:26.098Z,28.90
2023-02-18T02:56:26.250Z,23.10
2023-02-18T02:57:26.396Z,21.80
2023-02-18T02:58:26.580Z,22.20
2023-02-18T02:59:26.744Z,23.50
2023-02-18T03:00:26.895Z,23.90
2023-02-18T03:01:27.046Z,19.40
2023-02-18T03:02:27.221Z,25.70
2023-02-18T03:03:27.421Z,25.20
2023-02-18T03:04:27.590Z,21.60
2023-02-18T03:05:27.762Z,20.10
2023-02-18T03:06:27.927Z,21.30
2023-02-18T03:07:28.077Z,18.50
2023-02-18T03:08:28.256Z,22.10
2023-02-18T03:09:28.404Z,20.10
2023-02-18T03:10:28.561Z,23.40
2023-02-18T03:11:28.706Z,25.40
2023-02-18T03:12:28.869Z,19.80
2023-02-18T03:13:29.039Z,20.60
2023-02-18T03:14:29.201Z,24.50
2023-02-18T03:15:29.355Z,17.50
2023-02-18T03:16:29.531Z,21.30
2023-02-18T03:17:29.682Z,24.40
2023-02-18T03:18:29.867Z,18.50
2023-02-18T03:19:30.043Z,20.40
2023-02-18T03:20:30.173Z,24.80
2023-02-18T03:21:30.326Z,24.20
2023-02-18T03:22:30.477Z,22.20
2023-02-18T03:23:30.645Z,18.90
2023-02-18T03:24:30.807Z,17.30
2023-02-18T03:25:30.956Z,21.20
2023-02-18T03:26:31.113Z,18.10
2023-02-18T03:27:31.238Z,24.90
2023-02-18T03:28:31.412Z,21.80
2023-02-18T03:29:31.559Z,15.50
2023-02-18T03:30:31.811Z,22.60
2023-02-18T03:31:31.938Z,24.30
2023-02-18T03:32:32.070Z,23.20
2023-02-18T03:33:37.266Z,18.20
2023-02-18T03:34:32.418Z,18.00
2023-02-18T03:35:32.575Z,22.80
2023-02-18T03:36:32.746Z,21.00
2023-02-18T03:37:32.887Z,19.50
2023-02-18T03:38:33.054Z,17.10
2023-02-18T03:39:33.213Z,17.00
2023-02-18T03:40:33.372Z,21.80
2023-02-18T03:41:33.534Z,18.80
2023-02-18T03:42:33.687Z,17.00
2023-02-18T03:43:33.838Z,20.50
2023-02-18T03:44:34.003Z,19.20
2023-02-18T03:45:34.150Z,18.10
2023-02-18T03:46:34.307Z,18.90
2023-02-18T03:47:34.452Z,17.70
2023-02-18T03:48:34.617Z,19.30
2023-02-18T03:49:34.768Z,19.70
2023-02-18T03:50:34.927Z,19.40
2023-02-18T03:51:35.066Z,17.60
2023-02-18T03:52:35.215Z,17.30
2023-02-18T03:53:35.358Z,18.50
2023-02-18T03:54:35.517Z,18.30
2023-02-18T03:55:35.668Z,18.70
2023-02-18T03:56:35.835Z,20.80
2023-02-18T03:57:35.978Z,18.50
2023-02-18T03:58:36.160Z,20.70
2023-02-18T03:59:36.299Z,17.40
2023-02-18T04:00:36.461Z,16.40
2023-02-18T04:01:36.720Z,18.90
2023-02-18T04:02:36.841Z,14.10
2023-02-18T04:03:36.994Z,16.80
2023-02-18T04:04:37.205Z,18.90
2023-02-18T04:05:37.350Z,17.40
2023-02-18T04:06:37.515Z,18.50
2023-02-18T04:07:37.668Z,19.30
2023-02-18T04:08:37.832Z,18.60
2023-02-18T04:09:37.986Z,21.20
2023-02-18T04:10:38.154Z,17.60
2023-02-18T04:11:38.304Z,17.00
2023-02-18T04:12:38.466Z,15.80
2023-02-18T04:13:38.622Z,16.30
2023-02-18T04:14:38.785Z,19.10
2023-02-18T04:15:38.932Z,17.20
2023-02-18T04:16:39.125Z,14.60
2023-02-18T04:17:39.263Z,14.50
2023-02-18T04:18:39.432Z,20.50
2023-02-18T04:19:39.590Z,18.70
2023-02-18T04:20:39.756Z,16.90
2023-02-18T04:21:39.909Z,18.10
2023-02-18T04:22:40.087Z,15.40
2023-02-18T04:23:40.246Z,13.50
2023-02-18T04:24:40.409Z,19.10
2023-02-18T04:25:40.571Z,18.60
2023-02-18T04:26:40.727Z,16.70
2023-02-18T04:27:40.879Z,18.70
2023-02-18T04:28:41.002Z,19.10
2023-02-18T04:29:41.187Z,15.30
2023-02-18T04:30:41.455Z,17.50
2023-02-18T04:31:41.523Z,16.50
2023-02-18T04:32:41.633Z,21.20
2023-02-18T04:33:41.741Z,15.00
2023-02-18T04:34:41.851Z,15.50
2023-02-18T04:35:42.182Z,20.10
2023-02-18T04:36:42.100Z,18.40
2023-02-18T04:37:42.251Z,20.30
2023-02-18T04:38:42.424Z,15.70
2023-02-18T04:39:42.602Z,19.70
2023-02-18T04:40:42.768Z,18.60
2023-02-18T04:41:42.921Z,16.60
2023-02-18T04:42:43.071Z,17.60
2023-02-18T04:43:43.231Z,14.50
2023-02-18T04:44:43.913Z,21.80
2023-02-18T04:45:43.492Z,18.90
2023-02-18T04:46:43.648Z,16.70
2023-02-18T04:47:43.798Z,18.10
2023-02-18T04:48:43.964Z,15.10
2023-02-18T04:49:44.112Z,14.50
2023-02-18T04:50:44.287Z,16.10
2023-02-18T04:51:44.445Z,17.70
2023-02-18T04:52:44.601Z,19.30
2023-02-18T04:53:44.752Z,19.90
2023-02-18T04:54:44.927Z,17.50
2023-02-18T04:55:45.076Z,13.20
2023-02-18T04:56:45.241Z,17.70
2023-02-18T04:57:45.392Z,17.40
2023-02-18T04:58:45.565Z,16.10
2023-02-18T04:59:45.721Z,16.30
2023-02-18T05:00:45.922Z,17.50
2023-02-18T05:01:46.033Z,15.10
2023-02-18T05:02:46.164Z,15.80
2023-02-18T05:03:46.366Z,18.00
2023-02-18T05:04:46.362Z,23.60
2023-02-18T05:05:46.596Z,16.30
2023-02-18T05:06:46.771Z,16.40
2023-02-18T05:07:46.906Z,18.40
2023-02-18T05:08:47.070Z,13.70
2023-02-18T05:09:47.237Z,18.40
2023-02-18T05:10:47.392Z,18.80
2023-02-18T05:11:47.554Z,16.50
2023-02-18T05:12:47.702Z,17.30
2023-02-18T05:13:47.850Z,19.30
2023-02-18T05:14:48.011Z,18.00
2023-02-18T05:15:48.198Z,14.70
2023-02-18T05:16:48.356Z,16.20
2023-02-18T05:17:48.513Z,20.80
2023-02-18T05:18:48.682Z,19.30
2023-02-18T05:19:48.831Z,12.80
2023-02-18T05:20:49.010Z,17.30
2023-02-18T05:21:49.166Z,16.90
2023-02-18T05:22:49.343Z,11.60
2023-02-18T05:23:49.496Z,15.40
2023-02-18T05:24:49.651Z,16.00
2023-02-18T05:25:49.795Z,14.30
2023-02-18T05:26:49.952Z,14.60
2023-02-18T05:27:50.116Z,17.00
2023-02-18T05:28:50.258Z,14.10
2023-02-18T05:29:50.429Z,16.90
2023-02-18T05:30:50.632Z,15.80
2023-02-18T05:31:50.859Z,14.00
2023-02-18T05:32:50.942Z,15.00
2023-02-18T05:33:51.104Z,18.20
2023-02-18T05:34:51.252Z,18.50
2023-02-18T05:35:51.401Z,16.70
2023-02-18T05:36:51.554Z,14.90
2023-02-18T05:37:51.710Z,14.80
2023-02-18T05:38:51.858Z,16.90
2023-02-18T05:39:51.997Z,15.70
2023-02-18T05:40:52.154Z,15.10
2023-02-18T05:41:52.307Z,15.00
2023-02-18T05:42:52.464Z,18.00
2023-02-18T05:43:52.619Z,16.50
2023-02-18T05:44:52.774Z,12.60
2023-02-18T05:45:52.928Z,15.40
2023-02-18T05:46:53.094Z,14.80
2023-02-18T05:47:53.265Z,14.30
2023-02-18T05:48:53.431Z,14.00
2023-02-18T05:49:53.548Z,15.50
2023-02-18T05:50:53.744Z,18.10
2023-02-18T05:51:53.912Z,16.50
2023-02-18T05:52:54.091Z,14.10
2023-02-18T05:53:54.266Z,11.50
2023-02-18T05:54:54.462Z,14.70
2023-02-18T05:55:54.632Z,15.40
2023-02-18T05:56:54.838Z,11.80
2023-02-18T05:57:54.892Z,14.80
2023-02-18T05:58:55.071Z,11.60
2023-02-18T05:59:55.262Z,14.90
2023-02-18T06:00:55.414Z,10.30
2023-02-18T06:01:55.592Z,14.50
2023-02-18T06:02:55.788Z,13.60
2023-02-18T06:03:55.922Z,18.10
2023-02-18T06:04:56.111Z,13.40
2023-02-18T06:05:56.361Z,14.30
2023-02-18T06:06:56.481Z,11.70
2023-02-18T06:07:56.886Z,14.00
2023-02-18T06:08:56.827Z,13.00
2023-02-18T06:09:56.998Z,14.60
2023-02-18T06:10:57.146Z,13.20
2023-02-18T06:11:57.303Z,19.20
2023-02-18T06:12:57.456Z,12.00
2023-02-18T06:13:57.613Z,13.30
2023-02-18T06:14:57.787Z,14.50
2023-02-18T06:15:57.967Z,18.60
2023-02-18T06:16:58.079Z,13.40
2023-02-18T06:17:58.231Z,13.20
2023-02-18T06:18:58.398Z,14.40
2023-02-18T06:19:58.562Z,13.30
2023-02-18T06:20:58.724Z,13.70
2023-02-18T06:21:58.865Z,15.30
2023-02-18T06:22:59.014Z,13.00
2023-02-18T06:23:59.172Z,13.20
2023-02-18T06:24:59.328Z,15.90
2023-02-18T06:25:59.467Z,12.50
2023-02-18T06:26:59.616Z,11.60
2023-02-18T06:27:59.750Z,13.60
2023-02-18T06:28:59.911Z,12.80
2023-02-18T06:30:00.162Z,14.70
2023-02-18T06:31:00.414Z,11.40
2023-02-18T06:32:00.437Z,12.70
2023-02-18T06:33:00.507Z,13.90
2023-02-18T06:34:00.669Z,15.80
2023-02-18T06:35:00.835Z,10.80
2023-02-18T06:36:00.976Z,13.80
2023-02-18T06:37:01.509Z,13.90
2023-02-18T06:38:01.221Z,15.50
2023-02-18T06:39:01.370Z,15.80
2023-02-18T06:40:01.535Z,13.30
2023-02-18T06:41:01.688Z,15.00
2023-02-18T06:42:01.838Z,14.50
2023-02-18T06:43:02.005Z,12.80
2023-02-18T06:44:02.153Z,16.50
2023-02-18T06:45:02.336Z,15.10
2023-02-18T06:46:02.478Z,12.70
2023-02-18T06:47:02.626Z,13.30
2023-02-18T06:48:02.778Z,16.20
2023-02-18T06:49:02.941Z,11.90
2023-02-18T06:50:03.093Z,12.20
2023-02-18T06:51:03.252Z,13.60
2023-02-18T06:52:03.395Z,14.90
2023-02-18T06:53:03.540Z,11.80
2023-02-18T06:54:03.680Z,14.80
2023-02-18T06:55:03.840Z,13.30
2023-02-18T06:56:04.010Z,12.70
2023-02-18T06:57:04.157Z,12.40
2023-02-18T06:58:04.326Z,12.50
2023-02-18T06:59:04.480Z,10.00
2023-02-18T07:00:04.642Z,14.60
2023-02-18T07:01:04.793Z,14.00
2023-02-18T07:02:04.943Z,11.70
2023-02-18T07:03:05.090Z,11.70
2023-02-18T07:04:05.293Z,13.00
2023-02-18T07:05:05.440Z,14.10
2023-02-18T07:06:05.606Z,11.60
2023-02-18T07:07:05.754Z,10.40
2023-02-18T07:08:05.897Z,11.80
2023-02-18T07:09:06.058Z,9.70
2023-02-18T07:10:06.219Z,13.50
2023-02-18T07:11:06.375Z,8.70
2023-02-18T07:12:06.528Z,10.10
2023-02-18T07:13:06.674Z,9.80
2023-02-18T07:14:08.343Z,12.60
2023-02-18T07:15:06.985Z,13.60
2023-02-18T07:16:07.552Z,9.80
2023-02-18T07:17:07.225Z,10.50
2023-02-18T07:18:07.376Z,8.50
2023-02-18T07:19:07.523Z,10.60
2023-02-18T07:20:07.696Z,7.70
2023-02-18T07:21:07.822Z,7.80
2023-02-18T07:22:08.119Z,9.20
2023-02-18T07:23:08.146Z,10.10
2023-02-18T07:24:08.305Z,12.90
2023-02-18T07:25:08.472Z,9.60
2023-02-18T07:26:09.027Z,9.70
2023-02-18T07:27:08.765Z,10.50
2023-02-18T07:28:08.946Z,9.00
2023-02-18T07:29:09.089Z,11.40
2023-02-18T07:30:09.380Z,11.10
2023-02-18T07:39:37.983Z,14.40
2023-02-18T07:43:13.430Z,9.80
2023-02-18T07:44:13.598Z,9.20
2023-02-18T07:47:09.551Z,12.10
2023-02-18T07:47:52.151Z,15.40
2023-02-18T07:48:52.181Z,11.60
2023-02-18T07:49:52.339Z,12.60
2023-02-18T07:50:52.499Z,11.00
2023-02-18T07:51:52.700Z,11.20
2023-02-18T07:52:52.957Z,11.10
2023-02-18T07:53:53.037Z,10.80
2023-02-18T07:54:53.200Z,15.90
2023-02-18T07:58:32.562Z,9.50
2023-02-18T07:58:56.029Z,8.60
2023-02-18T07:59:56.163Z,14.80
2023-02-18T08:00:56.329Z,12.90
2023-02-18T08:01:56.521Z,9.60
2023-02-18T08:02:56.683Z,12.00
2023-02-18T08:03:56.893Z,11.80
2023-02-18T08:04:57.042Z,13.50
2023-02-18T08:05:57.206Z,9.70
2023-02-18T08:06:57.360Z,8.80
2023-02-18T08:07:57.527Z,9.10
2023-02-18T08:08:57.701Z,14.60
2023-02-18T08:09:57.870Z,11.90
2023-02-18T08:10:59.633Z,12.10
2023-02-18T08:11:58.230Z,12.40
2023-02-18T08:12:58.452Z,11.10
2023-02-18T08:13:58.503Z,13.40
2023-02-18T08:14:59.421Z,9.70
2023-02-18T08:15:58.877Z,9.00
2023-02-18T08:16:59.011Z,11.60
2023-02-18T08:17:59.077Z,10.60
2023-02-18T08:18:59.248Z,11.50
2023-02-18T08:19:59.408Z,10.10
2023-02-18T08:20:59.590Z,9.90
2023-02-18T08:21:59.744Z,10.90
2023-02-18T08:22:59.907Z,13.60
2023-02-18T08:24:00.115Z,10.60
2023-02-18T08:25:00.269Z,12.30
2023-02-18T08:26:00.450Z,9.80
2023-02-18T08:27:01.684Z,9.90
2023-02-18T08:28:00.759Z,11.70
2023-02-18T08:29:00.974Z,13.70
2023-02-18T08:30:01.077Z,11.40
2023-02-18T08:31:01.337Z,13.60
2023-02-18T08:32:01.374Z,14.70
2023-02-18T08:33:01.525Z,15.30
2023-02-18T08:34:01.677Z,12.80
2023-02-18T08:35:01.842Z,14.40
2023-02-18T08:36:02.004Z,15.50
2023-02-18T08:37:02.170Z,14.50
2023-02-18T08:38:02.371Z,13.20
2023-02-18T08:39:02.545Z,16.50
2023-02-18T08:40:02.682Z,11.20
2023-02-18T08:41:02.852Z,14.50
2023-02-18T08:42:03.041Z,15.30
2023-02-18T08:43:03.202Z,17.60
2023-02-18T08:44:03.365Z,21.80
2023-02-18T08:45:03.542Z,17.60
2023-02-18T08:46:03.758Z,14.60
2023-02-18T08:47:03.903Z,17.70
2023-02-18T08:48:16.597Z,15.00
2023-02-18T08:49:05.138Z,19.20
2023-02-18T08:50:04.297Z,17.80
2023-02-18T08:51:06.036Z,15.00
2023-02-18T08:52:04.665Z,25.10
2023-02-18T08:53:04.834Z,18.20
2023-02-18T08:54:05.026Z,23.60
2023-02-18T08:55:05.206Z,26.50
2023-02-18T08:56:05.385Z,28.70
2023-02-18T08:57:05.553Z,22.80
2023-02-18T08:58:05.727Z,22.60
2023-02-18T08:59:05.912Z,20.40
2023-02-18T09:00:06.106Z,24.20
2023-02-18T09:01:06.563Z,24.50
2023-02-18T09:02:06.463Z,25.40
2023-02-18T09:03:06.660Z,32.90
2023-02-18T09:04:06.847Z,26.60
2023-02-18T09:05:07.007Z,20.80
2023-02-18T09:06:07.180Z,25.10
2023-02-18T09:07:07.370Z,28.50
2023-02-18T09:08:07.534Z,31.60
2023-02-18T09:09:07.691Z,33.20
2023-02-18T09:10:07.857Z,26.00
2023-02-18T09:11:08.451Z,30.20
2023-02-18T09:12:08.172Z,32.10
2023-02-18T09:13:08.350Z,34.30
2023-02-18T09:14:08.520Z,40.00
2023-02-18T09:15:08.699Z,28.40
2023-02-18T09:16:08.996Z,40.30
2023-02-18T09:17:09.082Z,42.20
2023-02-18T09:18:09.265Z,30.80
2023-02-18T09:19:09.428Z,33.60
2023-02-18T09:20:09.629Z,37.90
2023-02-18T09:21:10.242Z,38.40
2023-02-18T09:22:17.054Z,35.70
2023-02-18T09:23:12.137Z,32.90
2023-02-18T09:24:10.408Z,34.10
2023-02-18T09:25:10.600Z,83.60
2023-02-18T09:26:10.776Z,90.80
2023-02-18T09:27:11.354Z,33.70
2023-02-18T09:28:11.132Z,36.40
2023-02-18T09:29:11.304Z,39.20
2023-02-18T09:30:11.495Z,34.60
2023-02-18T09:31:12.272Z,31.30
2023-02-18T09:32:14.545Z,28.30
2023-02-18T09:33:13.011Z,31.20
2023-02-18T09:34:12.165Z,33.30
2023-02-18T09:35:12.343Z,33.50
2023-02-18T09:36:12.597Z,35.70
2023-02-18T09:37:12.689Z,32.00
2023-02-18T09:38:12.890Z,31.10
2023-02-18T09:39:13.100Z,40.00
2023-02-18T09:40:15.368Z,38.10
2023-02-18T09:41:13.487Z,32.90
2023-02-18T09:42:13.555Z,35.70
2023-02-18T09:43:13.730Z,90.50
2023-02-18T09:44:13.907Z,50.50
2023-02-18T09:45:14.098Z,69.00
2023-02-18T09:46:14.324Z,30.50
2023-02-18T09:47:14.472Z,63.70
2023-02-18T09:48:14.643Z,63.70
2023-02-18T09:49:14.819Z,174.40
2023-02-18T09:50:14.995Z,27.80
2023-02-18T09:51:15.183Z,34.60
2023-02-18T09:52:15.367Z,41.20
2023-02-18T09:53:15.551Z,36.70
2023-02-18T09:54:15.725Z,29.60
2023-02-18T09:55:15.905Z,33.80
2023-02-18T09:56:16.082Z,35.90
2023-02-18T09:57:16.265Z,39.30
2023-02-18T09:58:16.452Z,35.10
2023-02-18T09:59:16.639Z,34.40
2023-02-18T10:00:16.813Z,28.20
2023-02-18T10:01:17.020Z,34.60
2023-02-18T10:02:17.185Z,33.10
2023-02-18T10:03:17.372Z,36.70
2023-02-18T10:04:17.544Z,45.40
2023-02-18T10:05:17.719Z,42.30
2023-02-18T10:06:17.929Z,33.40
2023-02-18T10:07:18.334Z,36.40
2023-02-18T10:08:18.281Z,37.00
2023-02-18T10:09:18.462Z,36.60
2023-02-18T10:10:18.646Z,40.30
2023-02-18T10:11:18.800Z,33.00
2023-02-18T10:12:18.966Z,37.20
2023-02-18T10:13:19.150Z,42.80
2023-02-18T10:14:19.314Z,48.10
2023-02-18T10:15:19.472Z,39.90
2023-02-18T10:16:19.734Z,43.90
2023-02-18T10:17:19.796Z,50.10
2023-02-18T10:18:19.966Z,40.70
2023-02-18T10:19:20.130Z,36.70
2023-02-18T10:20:20.361Z,33.50
2023-02-18T10:21:20.425Z,45.00
2023-02-18T10:22:20.621Z,44.00
2023-02-18T10:23:20.770Z,44.50
2023-02-18T10:24:20.973Z,34.80
2023-02-18T10:25:21.153Z,40.50
2023-02-18T10:26:21.331Z,40.50
2023-02-18T10:27:21.496Z,43.00
2023-02-18T10:28:21.692Z,33.30
2023-02-18T10:29:22.182Z,36.10
2023-02-18T10:30:22.225Z,44.30
2023-02-18T10:31:22.274Z,37.70
2023-02-18T10:32:22.352Z,44.00
2023-02-18T10:33:22.568Z,40.60
2023-02-18T10:34:22.771Z,37.80
2023-02-18T10:35:22.936Z,54.10
2023-02-18T10:36:23.107Z,50.90
2023-02-18T10:37:23.277Z,42.50
2023-02-18T10:38:23.448Z,40.90
2023-02-18T10:39:23.617Z,42.70
2023-02-18T10:40:23.771Z,50.90
2023-02-18T10:41:23.975Z,48.10
2023-02-18T10:42:24.146Z,47.50
2023-02-18T10:43:24.305Z,45.90
2023-02-18T10:44:24.495Z,43.40
2023-02-18T10:45:24.648Z,43.80
2023-02-18T10:46:24.850Z,41.60
2023-02-18T10:47:25.014Z,41.40
2023-02-18T10:48:25.202Z,41.30
2023-02-18T10:49:25.367Z,47.60
2023-02-18T10:50:25.533Z,41.50
2023-02-18T10:51:25.715Z,46.00
2023-02-18T10:52:25.887Z,44.10
2023-02-18T10:53:26.061Z,44.10
2023-02-18T10:54:26.213Z,51.00
2023-02-18T10:55:26.371Z,43.20
2023-02-18T10:56:26.619Z,39.90
2023-02-18T10:57:26.710Z,41.50
2023-02-18T10:58:26.921Z,37.80
2023-02-18T10:59:27.094Z,40.50
2023-02-18T11:00:27.324Z,36.30
2023-02-18T11:01:27.381Z,43.00
2023-02-18T11:02:27.543Z,38.40
2023-02-18T11:03:27.719Z,33.70
2023-02-18T11:04:27.912Z,40.00
2023-02-18T11:05:28.088Z,32.70
2023-02-18T11:06:28.316Z,36.30
2023-02-18T11:07:28.488Z,35.80
2023-02-18T11:08:28.668Z,47.50
2023-02-18T11:09:28.832Z,47.10
2023-02-18T11:10:29.010Z,43.90
2023-02-18T11:11:29.236Z,38.00
2023-02-18T11:12:29.347Z,41.50
2023-02-18T11:13:29.492Z,41.50
2023-02-18T11:14:29.682Z,46.30
2023-02-18T11:15:29.832Z,40.90
2023-02-18T11:16:30.052Z,40.20
2023-02-18T11:17:30.131Z,40.70
2023-02-18T11:18:30.286Z,39.40
2023-02-18T11:19:30.443Z,29.80
2023-02-18T11:20:30.606Z,34.80
2023-02-18T11:21:30.814Z,35.30
2023-02-18T11:22:31.023Z,39.10
2023-02-18T11:23:31.178Z,36.10
2023-02-18T11:24:31.348Z,29.30
2023-02-18T11:25:31.502Z,29.90
2023-02-18T11:26:31.673Z,28.40
2023-02-18T11:27:31.830Z,32.50
2023-02-18T11:28:32.008Z,34.50
2023-02-18T11:29:32.170Z,35.70
2023-02-18T11:30:32.358Z,33.80
2023-02-18T11:31:32.577Z,27.10
2023-02-18T11:32:32.637Z,29.90
2023-02-18T11:33:32.812Z,34.30
2023-02-18T11:34:32.980Z,32.80
2023-02-18T11:35:33.172Z,30.40
2023-02-18T11:36:33.368Z,34.70
2023-02-18T11:37:33.553Z,35.90
2023-02-18T11:38:33.709Z,29.10
2023-02-18T11:39:33.878Z,30.70
2023-02-18T11:40:34.053Z,32.10
2023-02-18T11:41:34.247Z,31.20
2023-02-18T11:42:34.441Z,34.20
2023-02-18T11:43:34.596Z,34.80
2023-02-18T11:44:34.777Z,28.10
2023-02-18T11:45:34.944Z,28.40
2023-02-18T11:46:35.170Z,27.80
2023-02-18T11:47:35.318Z,31.80
2023-02-18T11:48:35.478Z,34.70
2023-02-18T11:49:35.648Z,28.00
2023-02-18T11:50:35.888Z,33.10
2023-02-18T11:51:35.958Z,30.30
2023-02-18T11:52:36.068Z,31.80
2023-02-18T11:53:36.240Z,36.10
2023-02-18T11:54:36.402Z,30.60
2023-02-18T11:55:36.596Z,31.90
2023-02-18T11:56:36.765Z,31.00
2023-02-18T11:57:36.953Z,33.50
2023-02-18T11:58:37.107Z,30.70
2023-02-18T11:59:37.280Z,38.40
2023-02-18T12:00:37.448Z,41.80
2023-02-18T12:01:37.636Z,49.30
2023-02-18T12:02:37.818Z,42.60
2023-02-18T12:03:37.977Z,38.30
2023-02-18T12:04:38.179Z,45.10
2023-02-18T12:05:38.338Z,41.10
2023-02-18T12:06:38.552Z,40.30
2023-02-18T12:07:38.719Z,43.70
2023-02-18T12:08:38.894Z,49.90
2023-02-18T12:09:39.039Z,57.80
2023-02-18T12:10:39.219Z,47.50
2023-02-18T12:11:39.382Z,41.40
2023-02-18T12:12:39.581Z,48.00
2023-02-18T12:13:39.743Z,55.00
2023-02-18T12:14:39.854Z,45.30
2023-02-18T12:15:39.988Z,42.70
2023-02-18T12:16:40.254Z,88.50
2023-02-18T12:17:40.334Z,63.70
2023-02-18T12:18:42.621Z,44.50
2023-02-18T12:19:40.571Z,50.80
2023-02-18T12:20:40.751Z,62.60
2023-02-18T12:21:40.922Z,53.50
2023-02-18T12:22:41.095Z,51.80
2023-02-18T12:23:41.268Z,57.60
2023-02-18T12:24:41.433Z,48.70
2023-02-18T12:25:45.615Z,54.00
2023-02-18T12:26:41.776Z,48.50
2023-02-18T12:27:41.925Z,52.50
2023-02-18T12:28:42.084Z,48.80
2023-02-18T12:29:42.235Z,51.40
2023-02-18T12:30:42.404Z,54.70
2023-02-18T12:31:42.638Z,52.40
2023-02-18T12:32:42.703Z,54.40
2023-02-18T12:33:42.848Z,50.60
2023-02-18T12:34:43.029Z,51.80
2023-02-18T12:35:43.157Z,54.10
2023-02-18T12:36:43.449Z,51.30
2023-02-18T12:37:43.483Z,55.70
2023-02-18T12:38:43.662Z,53.90
2023-02-18T12:39:43.828Z,53.00
2023-02-18T12:40:43.973Z,50.70
2023-02-18T12:41:44.129Z,48.60
2023-02-18T12:42:44.284Z,53.90
2023-02-18T12:43:44.424Z,53.20
2023-02-18T12:44:45.515Z,46.20
2023-02-18T12:45:44.806Z,48.50
2023-02-18T12:46:44.962Z,48.90
2023-02-18T12:47:45.106Z,49.00
2023-02-18T12:48:45.262Z,52.40
2023-02-18T12:49:45.425Z,52.50
2023-02-18T12:50:45.581Z,51.40
2023-02-18T12:52:06.766Z,52.70
2023-02-18T12:52:45.816Z,49.70
2023-02-18T12:53:45.974Z,46.70
2023-02-18T12:54:46.111Z,48.10
2023-02-18T12:55:46.317Z,49.40
2023-02-18T12:56:46.465Z,48.50
2023-02-18T12:57:46.622Z,49.00
2023-02-18T12:58:46.776Z,46.20
2023-02-18T12:59:46.946Z,43.90
2023-02-18T13:00:47.329Z,48.10
2023-02-18T13:01:47.274Z,49.10
2023-02-18T13:02:47.437Z,45.10
2023-02-18T13:03:47.571Z,41.60
2023-02-18T13:04:47.713Z,41.70
2023-02-18T13:05:47.869Z,37.20
2023-02-18T13:06:48.057Z,39.80
2023-02-18T13:07:48.228Z,35.50
2023-02-18T13:08:48.385Z,38.20
2023-02-18T13:09:48.554Z,36.50
2023-02-18T13:10:48.934Z,35.60